Time;durP1;ratioP1;P1;durP2;ratioP2;P2;SDS_P1;SDS_P2;PMS_P1;PMS_P2;Temp;Humidity;BMP_temperature;BMP_pressure;BME280_temperature;BME280_humidity;BME280_pressure;Samples;Min_cycle;Max_cycle;Signal;HPM_P1;HPM_P2
2023/01/02 00:01:25;;;;;;;130.32;66.70;;;;;;;4.46;nan;96440.59;5090983;28;20235;-59
2023/01/02 00:03:54;;;;;;;128.45;64.40;;;;;;;4.54;nan;96436.50;5090529;28;20580;-60
2023/01/02 00:06:21;;;;;;;128.00;64.20;;;;;;;4.58;nan;96438.25;5090679;28;20258;-59
2023/01/02 00:08:47;;;;;;;127.93;61.60;;;;;;;4.51;nan;96433.97;5090490;28;20205;-58
2023/01/02 00:11:14;;;;;;;98.90;53.40;;;;;;;4.53;nan;96432.31;5090388;28;20197;-59
2023/01/02 00:13:41;;;;;;;98.88;49.40;;;;;;;4.54;nan;96431.47;5090617;28;20272;-58
2023/01/02 00:16:09;;;;;;;104.72;52.72;;;;;;;4.58;nan;96433.22;5090416;28;20671;-60
2023/01/02 00:18:36;;;;;;;107.93;53.67;;;;;;;4.45;nan;96433.91;5090540;28;20331;-59
2023/01/02 00:21:04;;;;;;;92.20;49.03;;;;;;;4.44;nan;96435.56;5090316;28;20602;-58
2023/01/02 00:23:31;;;;;;;110.30;53.72;;;;;;;4.50;nan;96428.91;5089881;28;20767;-59
2023/01/02 00:25:58;;;;;;;102.10;55.30;;;;;;;4.50;nan;96424.72;5090392;28;20665;-58
2023/01/02 00:28:25;;;;;;;103.35;52.45;;;;;;;4.38;nan;96435.50;5090163;28;20194;-59
2023/01/02 00:30:51;;;;;;;104.50;52.85;;;;;;;4.44;nan;96429.69;5090473;28;20197;-58
2023/01/02 00:33:20;;;;;;;109.30;53.03;;;;;;;4.42;nan;96428.84;5089946;28;20221;-59
2023/01/02 00:35:46;;;;;;;95.40;51.28;;;;;;;4.45;nan;96421.31;5090415;28;20209;-60
2023/01/02 00:38:13;;;;;;;98.25;51.40;;;;;;;4.41;nan;96429.66;5090535;28;20276;-58
2023/01/02 00:40:40;;;;;;;119.65;62.78;;;;;;;4.46;nan;96420.47;5090139;28;20198;-59
2023/01/02 00:43:07;;;;;;;122.03;61.65;;;;;;;4.49;nan;96425.53;5090188;28;20225;-59
2023/01/02 00:45:33;;;;;;;112.22;54.75;;;;;;;4.46;nan;96422.97;5090550;28;20198;-60
2023/01/02 00:48:00;;;;;;;100.78;52.70;;;;;;;4.33;nan;96426.19;5094048;28;20224;-59
2023/01/02 00:50:28;;;;;;;105.50;51.95;;;;;;;4.24;nan;96436.13;5094247;28;20202;-60
2023/01/02 00:52:55;;;;;;;109.03;54.45;;;;;;;4.14;nan;96430.16;5093510;28;20198;-58
2023/01/02 00:55:22;;;;;;;118.25;58.35;;;;;;;4.32;nan;96434.56;5093883;28;20756;-59
2023/01/02 00:57:49;;;;;;;112.55;58.15;;;;;;;4.35;nan;96437.97;5093991;28;20202;-59
2023/01/02 01:00:16;;;;;;;117.15;56.55;;;;;;;4.35;nan;96425.38;5094070;28;20198;-59
2023/01/02 01:02:43;;;;;;;99.32;52.42;;;;;;;4.19;nan;96437.78;5093533;28;20197;-59
2023/01/02 01:05:10;;;;;;;116.63;55.95;;;;;;;4.09;nan;96437.63;5093466;28;20230;-59
2023/01/02 01:07:38;;;;;;;110.32;55.28;;;;;;;4.05;nan;96440.94;5093574;28;20572;-58
2023/01/02 01:10:05;;;;;;;119.45;58.38;;;;;;;4.06;nan;96437.59;5093563;28;20270;-59
2023/01/02 01:12:32;;;;;;;127.93;63.35;;;;;;;3.97;nan;96431.56;5093149;28;20717;-58
2023/01/02 01:14:59;;;;;;;137.88;70.70;;;;;;;4.04;nan;96429.19;5093255;28;20201;-60
2023/01/02 01:17:26;;;;;;;126.32;62.28;;;;;;;3.89;nan;96431.50;5092932;28;20202;-56
2023/01/02 01:19:52;;;;;;;153.02;71.63;;;;;;;3.73;nan;96422.03;5093367;28;20254;-59
2023/01/02 01:22:19;;;;;;;111.75;58.92;;;;;;;3.90;nan;96428.16;5092835;28;20730;-59
2023/01/02 01:24:47;;;;;;;126.97;61.67;;;;;;;3.94;nan;96427.38;5093053;28;20228;-59
2023/01/02 01:27:14;;;;;;;119.95;55.17;;;;;;;3.94;nan;96422.34;5093263;28;20667;-58
2023/01/02 01:29:41;;;;;;;111.67;55.17;;;;;;;3.81;nan;96429.69;5092889;28;20198;-58
2023/01/02 01:32:08;;;;;;;116.78;57.50;;;;;;;3.84;nan;96423.03;5092863;28;20251;-59
2023/01/02 01:34:34;;;;;;;126.20;59.38;;;;;;;3.91;nan;96423.97;5092471;28;20707;-59
2023/01/02 01:37:01;;;;;;;107.40;55.22;;;;;;;3.89;nan;96423.94;5092939;28;20201;-59
2023/01/02 01:39:28;;;;;;;112.70;56.15;;;;;;;3.88;nan;96426.44;5092910;28;20198;-58
2023/01/02 01:41:59;;;;;;;109.30;55.45;;;;;;;3.87;nan;96409.66;5093012;28;20209;-56
2023/01/02 01:44:43;;;;;;;113.57;53.60;;;;;;;3.93;nan;96415.63;5092870;28;20225;-59
2023/01/02 01:47:17;;;;;;;98.03;51.60;;;;;;;3.87;nan;96405.47;5092742;28;20198;-59
2023/01/02 01:49:46;;;;;;;93.80;49.05;;;;;;;3.82;nan;96414.63;5092895;28;20193;-59
2023/01/02 01:52:18;;;;;;;105.57;52.85;;;;;;;3.80;nan;96413.75;5092890;28;20280;-59
2023/01/02 01:54:48;;;;;;;93.00;50.22;;;;;;;3.85;nan;96402.09;5093046;28;20613;-58
2023/01/02 01:57:22;;;;;;;97.03;47.20;;;;;;;3.88;nan;96404.66;5092463;28;20198;-58
2023/01/02 01:59:49;;;;;;;81.68;44.92;;;;;;;3.76;nan;96399.44;5092176;28;20255;-59
2023/01/02 02:02:17;;;;;;;84.43;43.97;;;;;;;3.77;nan;96406.16;5092189;28;20201;-59
2023/01/02 02:04:45;;;;;;;81.40;43.38;;;;;;;3.73;nan;96405.25;5092260;28;20233;-59
2023/01/02 02:07:13;;;;;;;73.57;41.55;;;;;;;3.68;nan;96401.03;5092263;28;20251;-59
2023/01/02 02:09:45;;;;;;;78.32;43.47;;;;;;;3.64;nan;96401.78;5092578;28;20205;-58
2023/01/02 02:12:12;;;;;;;72.40;40.57;;;;;;;3.67;nan;96402.69;5092380;28;20201;-58
2023/01/02 02:14:41;;;;;;;78.10;41.35;;;;;;;3.60;nan;96400.06;5092513;28;20318;-60
2023/01/02 02:17:16;;;;;;;77.20;39.95;;;;;;;3.64;nan;96411.84;5092433;28;20198;-58
2023/01/02 02:20:10;;;;;;;74.82;39.63;;;;;;;3.68;nan;96409.41;5092003;28;20205;-59
2023/01/02 02:23:02;;;;;;;69.60;38.38;;;;;;;3.76;nan;96401.94;5091886;28;20241;-59
2023/01/02 02:25:51;;;;;;;71.82;38.60;;;;;;;3.84;nan;96407.94;5092223;28;20284;-59
2023/01/02 02:29:01;;;;;;;73.63;39.67;;;;;;;3.74;nan;96403.59;5092226;28;20678;-59
2023/01/02 02:31:35;;;;;;;67.20;38.05;;;;;;;3.71;nan;96408.63;5084745;28;20210;-59
2023/01/02 02:34:08;;;;;;;68.50;38.28;;;;;;;3.78;nan;96410.38;5091486;28;20718;-59
2023/01/02 02:36:40;;;;;;;67.18;37.53;;;;;;;3.77;nan;96411.19;5091918;28;20278;-60
2023/01/02 02:39:18;;;;;;;72.23;36.97;;;;;;;3.68;nan;96408.56;5091859;28;20231;-59
2023/01/02 02:41:52;;;;;;;74.88;38.75;;;;;;;3.50;nan;96389.00;5091520;28;20300;-59
2023/01/02 02:44:32;;;;;;;73.07;36.97;;;;;;;3.39;nan;96396.41;5091663;28;20225;-59
2023/01/02 02:47:06;;;;;;;76.20;37.92;;;;;;;3.43;nan;96402.31;5091401;28;20205;-59
2023/01/02 02:49:46;;;;;;;63.05;36.63;;;;;;;3.51;nan;96394.88;5091894;28;20201;-59
2023/01/02 02:52:18;;;;;;;66.20;37.67;;;;;;;3.48;nan;96392.31;5091691;28;20216;-59
2023/01/02 02:54:49;;;;;;;61.72;35.88;;;;;;;3.52;nan;96382.34;5091652;28;20201;-59
2023/01/02 02:57:17;;;;;;;71.43;39.70;;;;;;;3.58;nan;96386.63;5091701;28;20201;-58
2023/01/02 02:59:44;;;;;;;76.38;42.33;;;;;;;3.63;nan;96382.50;5091533;28;20198;-59
2023/01/02 03:02:15;;;;;;;74.43;41.53;;;;;;;3.55;nan;96384.91;5091000;28;20205;-58
2023/01/02 03:04:44;;;;;;;82.00;42.10;;;;;;;3.37;nan;96384.63;5091439;28;20274;-59
2023/01/02 03:07:17;;;;;;;85.18;43.33;;;;;;;3.39;nan;96376.28;5091436;28;20198;-58
2023/01/02 03:09:53;;;;;;;92.35;45.05;;;;;;;3.56;nan;96376.53;5091290;28;20197;-59
2023/01/02 03:12:34;;;;;;;91.45;43.90;;;;;;;3.48;nan;96372.22;5091196;28;20685;-58
2023/01/02 03:15:14;;;;;;;84.93;45.15;;;;;;;3.56;nan;96374.03;5091495;28;20270;-58
2023/01/02 03:17:56;;;;;;;97.68;48.40;;;;;;;3.57;nan;96372.34;5091388;28;20251;-59
2023/01/02 03:20:28;;;;;;;91.43;47.25;;;;;;;3.42;nan;96376.34;5091030;28;20209;-58
2023/01/02 03:23:01;;;;;;;74.82;42.67;;;;;;;3.39;nan;96376.28;5090637;28;20238;-59
2023/01/02 03:25:28;;;;;;;81.45;44.25;;;;;;;3.44;nan;96378.03;5091044;28;20244;-59
2023/01/02 03:27:58;;;;;;;80.97;42.92;;;;;;;3.41;nan;96382.19;5091255;28;20202;-59
2023/01/02 03:30:25;;;;;;;82.95;43.58;;;;;;;3.17;nan;96383.47;5091168;28;20201;-59
2023/01/02 03:33:00;;;;;;;75.10;40.07;;;;;;;3.29;nan;96376.97;5091112;28;20197;-59
2023/01/02 03:35:30;;;;;;;75.43;41.38;;;;;;;3.45;nan;96393.13;5091124;28;20200;-59
2023/01/02 03:37:59;;;;;;;76.20;42.43;;;;;;;3.38;nan;96389.69;5091306;28;20255;-59
2023/01/02 03:40:31;;;;;;;78.30;40.47;;;;;;;3.55;nan;96396.63;5090752;28;20194;-58
2023/01/02 03:43:03;;;;;;;85.70;42.75;;;;;;;3.49;nan;96383.94;5090854;28;20566;-59
2023/01/02 03:45:33;;;;;;;84.38;44.95;;;;;;;3.50;nan;96394.03;5090617;28;20579;-59
2023/01/02 03:48:09;;;;;;;77.73;43.13;;;;;;;3.50;nan;96409.13;5090877;28;20202;-58
2023/01/02 03:50:42;;;;;;;76.60;42.78;;;;;;;3.47;nan;96408.22;5090897;28;20201;-59
2023/01/02 03:53:09;;;;;;;75.65;41.05;;;;;;;3.30;nan;96397.91;5090422;28;20631;-59
2023/01/02 03:55:40;;;;;;;73.63;40.00;;;;;;;3.33;nan;96401.31;5090457;28;20258;-58
2023/01/02 03:58:14;;;;;;;77.38;41.85;;;;;;;3.29;nan;96404.59;5090353;28;20573;-59
2023/01/02 04:00:51;;;;;;;74.22;40.13;;;;;;;3.29;nan;96396.22;5090372;28;20582;-59
2023/01/02 04:03:24;;;;;;;77.80;42.90;;;;;;;3.38;nan;96403.91;5091025;28;20215;-58
2023/01/02 04:05:55;;;;;;;72.60;39.63;;;;;;;3.38;nan;96414.81;5090551;28;20202;-59
2023/01/02 04:08:24;;;;;;;76.10;39.55;;;;;;;3.38;nan;96409.78;5090847;28;20632;-59
2023/01/02 04:10:54;;;;;;;74.50;39.03;;;;;;;3.23;nan;96396.97;5090733;28;20292;-59
2023/01/02 04:13:26;;;;;;;80.37;41.03;;;;;;;3.34;nan;96412.22;5090338;28;20201;-59
2023/01/02 04:15:54;;;;;;;68.45;38.85;;;;;;;3.29;nan;96404.59;5090498;28;20258;-59
2023/01/02 04:18:26;;;;;;;67.47;38.73;;;;;;;3.30;nan;96411.31;5090706;28;20613;-58
2023/01/02 04:20:57;;;;;;;80.47;39.83;;;;;;;3.12;nan;96415.22;5090881;28;20197;-58
2023/01/02 04:23:32;;;;;;;72.17;38.70;;;;;;;3.20;nan;96427.09;5094097;28;20213;-59
2023/01/02 04:26:04;;;;;;;75.68;39.05;;;;;;;3.18;nan;96436.25;5094526;28;20204;-58
2023/01/02 04:28:33;;;;;;;73.70;39.73;;;;;;;3.22;nan;96432.09;5094547;28;20198;-60
2023/01/02 04:31:09;;;;;;;77.65;37.90;;;;;;;3.04;nan;96427.63;5094342;28;20197;-60
2023/01/02 04:33:43;;;;;;;79.38;38.97;;;;;;;3.14;nan;96429.50;5093949;28;20225;-59
2023/01/02 04:36:11;;;;;;;69.90;36.90;;;;;;;3.15;nan;96421.13;5094299;28;20196;-59
2023/01/02 04:38:38;;;;;;;70.32;38.28;;;;;;;3.17;nan;96432.06;5093915;28;20569;-59
2023/01/02 04:41:06;;;;;;;75.80;41.50;;;;;;;3.19;nan;96437.94;5094170;28;20216;-60
2023/01/02 04:43:33;;;;;;;69.18;38.35;;;;;;;3.21;nan;96426.25;5094075;28;20241;-60
2023/01/02 04:46:00;;;;;;;69.97;38.47;;;;;;;3.23;nan;96434.66;5093869;28;20194;-59
2023/01/02 04:48:27;;;;;;;75.15;40.13;;;;;;;3.22;nan;96432.94;5094184;28;20258;-59
2023/01/02 04:50:55;;;;;;;67.90;37.97;;;;;;;3.25;nan;96440.53;5093991;28;20194;-59
2023/01/02 04:53:22;;;;;;;75.38;38.83;;;;;;;3.13;nan;96427.78;5093626;28;20208;-59
2023/01/02 04:55:49;;;;;;;70.13;38.03;;;;;;;3.11;nan;96434.44;5094054;28;20221;-59
2023/01/02 04:58:15;;;;;;;73.97;37.70;;;;;;;3.24;nan;96435.50;5094104;28;20213;-59
2023/01/02 05:00:42;;;;;;;66.03;35.50;;;;;;;3.30;nan;96430.56;5093493;28;20690;-59
2023/01/02 05:03:09;;;;;;;72.75;35.78;;;;;;;3.18;nan;96438.78;5093284;28;20198;-60
2023/01/02 05:05:35;;;;;;;61.93;34.13;;;;;;;3.25;nan;96432.16;5093641;28;20222;-59
2023/01/02 05:08:04;;;;;;;65.30;35.47;;;;;;;3.17;nan;96436.22;5093834;28;20205;-59
2023/01/02 05:10:31;;;;;;;58.87;34.73;;;;;;;3.24;nan;96431.31;5093321;28;20198;-58
2023/01/02 05:12:58;;;;;;;66.67;36.37;;;;;;;3.00;nan;96425.88;5092681;28;20290;-59
2023/01/02 05:15:25;;;;;;;61.72;36.22;;;;;;;2.82;nan;96425.56;5092628;28;20270;-59
2023/01/02 05:17:52;;;;;;;69.13;36.60;;;;;;;2.97;nan;96424.16;5093225;28;20205;-57
2023/01/02 05:20:19;;;;;;;69.70;36.88;;;;;;;2.81;nan;96428.88;5092966;28;20278;-59
2023/01/02 05:25:34;;;;;;;68.93;35.70;;;;;;;2.66;nan;96415.25;5092822;28;20738;-58
2023/01/02 05:28:02;;;;;;;68.73;36.10;;;;;;;2.79;nan;96420.47;5093358;28;20198;-58
2023/01/02 05:30:29;;;;;;;65.93;36.30;;;;;;;2.74;nan;96428.75;5093174;28;20202;-59
2023/01/02 05:32:56;;;;;;;68.25;35.10;;;;;;;2.65;nan;96418.56;5091706;28;20584;-59
2023/01/02 05:35:22;;;;;;;69.30;36.80;;;;;;;2.75;nan;96419.56;5092723;28;20216;-59
2023/01/02 05:37:49;;;;;;;64.82;37.22;;;;;;;2.87;nan;96423.97;5092781;28;20212;-59
2023/01/02 05:40:16;;;;;;;78.03;37.33;;;;;;;2.83;nan;96422.22;5093221;28;20198;-60
2023/01/02 05:42:44;;;;;;;79.82;39.83;;;;;;;2.90;nan;96424.03;5092520;28;20200;-57
2023/01/02 05:45:11;;;;;;;73.72;38.35;;;;;;;2.97;nan;96425.84;5092864;28;20771;-59
2023/01/02 05:47:38;;;;;;;71.10;38.75;;;;;;;3.05;nan;96420.13;5093008;28;20549;-58
2023/01/02 05:50:06;;;;;;;78.13;38.13;;;;;;;3.02;nan;96426.75;5092482;28;20755;-58
2023/01/02 05:52:32;;;;;;;81.55;39.42;;;;;;;3.04;nan;96432.66;5092763;28;20653;-60
2023/01/02 05:54:59;;;;;;;79.72;42.20;;;;;;;2.93;nan;96436.66;5092498;28;20735;-60
2023/01/02 05:57:26;;;;;;;75.57;41.90;;;;;;;2.93;nan;96436.66;5092569;28;20202;-59
2023/01/02 05:59:54;;;;;;;80.83;42.07;;;;;;;2.95;nan;96442.56;5092764;28;20202;-60
2023/01/02 06:02:21;;;;;;;75.40;40.57;;;;;;;2.95;nan;96443.41;5092058;28;20198;-60
2023/01/02 06:04:47;;;;;;;78.55;42.20;;;;;;;2.97;nan;96444.25;5092001;28;20221;-60
2023/01/02 06:07:14;;;;;;;75.67;39.93;;;;;;;3.05;nan;96444.38;5092041;28;20670;-59
2023/01/02 06:09:41;;;;;;;94.20;42.93;;;;;;;2.94;nan;96439.19;5092951;28;20267;-59
2023/01/02 06:12:08;;;;;;;81.27;40.67;;;;;;;3.00;nan;96456.00;5092574;28;20285;-58
2023/01/02 06:14:34;;;;;;;79.00;42.23;;;;;;;3.00;nan;96463.53;5092217;28;20605;-58
2023/01/02 06:17:02;;;;;;;82.87;44.33;;;;;;;2.95;nan;96460.13;5092513;28;20251;-59
2023/01/02 06:19:29;;;;;;;102.27;44.73;;;;;;;2.92;nan;96457.56;5092455;28;20197;-58
2023/01/02 06:21:56;;;;;;;91.67;43.90;;;;;;;2.86;nan;96470.00;5092235;28;20233;-59
2023/01/02 06:24:23;;;;;;;90.45;45.05;;;;;;;2.82;nan;96470.75;5091896;28;20615;-59
2023/01/02 06:26:50;;;;;;;88.68;46.83;;;;;;;2.92;nan;96472.63;5092478;28;20227;-59
2023/01/02 06:29:16;;;;;;;86.03;44.20;;;;;;;3.00;nan;96471.09;5092016;28;20209;-58
2023/01/02 06:31:43;;;;;;;75.57;41.17;;;;;;;3.06;nan;96471.19;5092053;28;20251;-58
2023/01/02 06:34:11;;;;;;;85.47;42.28;;;;;;;3.23;nan;96459.78;5092012;28;20221;-59
2023/01/02 06:36:38;;;;;;;75.18;39.92;;;;;;;3.56;nan;96478.75;5091693;28;20893;-59
2023/01/02 06:39:05;;;;;;;75.10;40.40;;;;;;;3.80;nan;96468.22;5091816;28;20201;-58
2023/01/02 06:41:32;;;;;;;71.80;37.67;;;;;;;3.98;nan;96471.00;5091464;28;20198;-59
2023/01/02 06:43:59;;;;;;;67.32;38.05;;;;;;;4.10;nan;96471.19;5091372;28;20746;-58
2023/01/02 06:46:26;;;;;;;72.60;39.17;;;;;;;4.15;nan;96471.25;5091453;28;20604;-59
2023/01/02 06:48:52;;;;;;;68.57;35.57;;;;;;;4.25;nan;96468.03;5091497;28;20204;-59
2023/01/02 06:51:22;;;;;;;58.75;36.22;;;;;;;4.40;nan;96469.09;5091736;28;20198;-60
2023/01/02 06:53:50;;;;;;;68.00;37.00;;;;;;;4.49;nan;96460.78;5091562;28;20562;-58
2023/01/02 06:56:18;;;;;;;71.65;39.88;;;;;;;4.61;nan;96467.66;5091612;28;20271;-60
2023/01/02 06:58:45;;;;;;;61.35;35.50;;;;;;;4.66;nan;96469.41;5091595;28;20305;-59
2023/01/02 07:01:14;;;;;;;65.20;35.03;;;;;;;4.77;nan;96465.31;5091391;28;20197;-59
2023/01/02 07:03:41;;;;;;;65.28;33.97;;;;;;;5.00;nan;96469.75;5091231;28;20198;-60
2023/01/02 07:06:11;;;;;;;63.85;35.30;;;;;;;5.21;nan;96471.63;5091020;28;20707;-59
2023/01/02 07:08:40;;;;;;;84.93;39.22;;;;;;;5.42;nan;96472.72;5091480;28;20205;-60
2023/01/02 07:11:11;;;;;;;76.35;37.60;;;;;;;5.57;nan;96476.19;5091535;28;20207;-60
2023/01/02 07:13:38;;;;;;;89.57;41.78;;;;;;;5.79;nan;96478.03;5090126;28;20197;-58
2023/01/02 07:16:08;;;;;;;96.03;44.58;;;;;;;6.03;nan;96470.69;5091492;28;20190;-59
2023/01/02 07:18:36;;;;;;;102.15;47.05;;;;;;;6.28;nan;96476.72;5090931;28;20635;-59
2023/01/02 07:21:02;;;;;;;110.10;50.58;;;;;;;6.91;nan;96461.84;5091028;28;20222;-60
2023/01/02 07:23:29;;;;;;;107.47;48.38;;;;;;;8.37;nan;96466.97;5087780;28;20197;-59
2023/01/02 07:25:59;;;;;;;113.68;53.05;;;;;;;10.08;nan;96467.63;5091003;28;20711;-59
2023/01/02 07:28:26;;;;;;;124.72;58.30;;;;;;;11.43;nan;96455.00;5090371;28;20208;-59
2023/01/02 07:30:56;;;;;;;112.70;59.15;;;;;;;11.43;nan;96451.63;5090675;28;20250;-58
2023/01/02 07:33:23;;;;;;;126.78;62.38;;;;;;;11.08;nan;96468.25;5090069;28;20653;-60
2023/01/02 07:35:50;;;;;;;127.80;63.63;;;;;;;10.67;nan;96468.72;5090669;28;20667;-60
2023/01/02 07:38:16;;;;;;;126.53;61.45;;;;;;;10.41;nan;96468.16;5091159;28;20198;-58
2023/01/02 07:40:43;;;;;;;132.93;61.00;;;;;;;10.22;nan;96464.97;5090599;28;20201;-58
2023/01/02 07:43:11;;;;;;;128.32;59.13;;;;;;;10.04;nan;96455.81;5090344;28;20193;-59
2023/01/02 07:45:38;;;;;;;127.00;57.97;;;;;;;10.39;nan;96473.28;5090847;28;20221;-59
2023/01/02 07:48:05;;;;;;;132.07;55.03;;;;;;;10.51;nan;96469.75;5090314;28;20676;-58
2023/01/02 07:50:31;;;;;;;114.47;52.67;;;;;;;10.43;nan;96474.09;5090830;28;20205;-59
2023/01/02 07:52:58;;;;;;;123.38;53.97;;;;;;;10.54;nan;96467.19;5090560;28;20202;-59
2023/01/02 07:55:25;;;;;;;129.38;53.90;;;;;;;10.66;nan;96477.22;5089918;28;20663;-60
2023/01/02 07:57:52;;;;;;;126.55;52.47;;;;;;;10.67;nan;96472.97;5090547;28;20198;-59
2023/01/02 08:00:21;;;;;;;112.25;50.67;;;;;;;11.08;nan;96465.69;5090375;28;20194;-59
2023/01/02 08:02:48;;;;;;;115.40;50.58;;;;;;;11.87;nan;96468.81;5090730;28;20233;-58
2023/01/02 08:05:16;;;;;;;110.32;48.47;;;;;;;12.44;nan;96458.44;5090475;28;20378;-59
2023/01/02 08:07:43;;;;;;;105.03;51.42;;;;;;;12.77;nan;96459.53;5090323;28;20202;-60
2023/01/02 08:10:10;;;;;;;113.15;50.42;;;;;;;12.99;nan;96452.28;5090520;28;20807;-59
2023/01/02 08:12:37;;;;;;;116.88;50.25;;;;;;;13.22;nan;96440.72;5090054;28;20775;-58
2023/01/02 08:15:05;;;;;;;114.60;52.72;;;;;;;13.24;nan;96450.91;5090343;28;20198;-58
2023/01/02 08:17:33;;;;;;;118.93;52.50;;;;;;;13.21;nan;96453.53;5090454;28;20251;-59
2023/01/02 08:20:00;;;;;;;115.35;52.70;;;;;;;13.15;nan;96456.16;5090622;28;20275;-59
2023/01/02 08:22:26;;;;;;;109.78;54.63;;;;;;;13.04;nan;96447.91;5089221;28;20233;-59
2023/01/02 08:24:53;;;;;;;113.90;54.75;;;;;;;12.86;nan;96450.00;5089321;28;20202;-59
2023/01/02 08:27:20;;;;;;;124.22;54.25;;;;;;;12.63;nan;96452.13;5089728;28;20223;-58
2023/01/02 08:29:46;;;;;;;123.85;57.00;;;;;;;12.44;nan;96453.34;5090422;28;20581;-60
2023/01/02 08:32:13;;;;;;;112.13;54.33;;;;;;;12.05;nan;96452.38;5090501;28;20202;-59
2023/01/02 08:34:41;;;;;;;123.70;56.13;;;;;;;11.79;nan;96455.34;5090307;28;20225;-58
2023/01/02 08:37:08;;;;;;;119.93;57.95;;;;;;;11.49;nan;96452.38;5090283;28;20282;-59
2023/01/02 08:39:35;;;;;;;121.18;59.30;;;;;;;11.00;nan;96452.22;5089611;28;20205;-58
2023/01/02 08:42:01;;;;;;;133.77;61.17;;;;;;;10.84;nan;96446.50;5089900;28;20668;-60
2023/01/02 08:44:28;;;;;;;116.88;56.35;;;;;;;10.81;nan;96450.78;5090059;28;20205;-59
2023/01/02 08:46:55;;;;;;;116.32;56.53;;;;;;;10.72;nan;96440.72;5089228;28;20225;-60
2023/01/02 08:49:21;;;;;;;115.28;57.00;;;;;;;10.90;nan;96446.41;5090257;28;20201;-59
2023/01/02 08:51:49;;;;;;;117.63;59.38;;;;;;;11.06;nan;96441.97;5089861;28;20202;-59
2023/01/02 08:54:16;;;;;;;120.72;58.38;;;;;;;11.17;nan;96429.09;5090070;28;20201;-59
2023/01/02 08:56:43;;;;;;;126.63;64.22;;;;;;;11.39;nan;96434.69;5090078;28;20259;-59
2023/01/02 08:59:12;;;;;;;128.50;61.70;;;;;;;11.33;nan;96435.66;5090074;28;20197;-59
2023/01/02 09:01:39;;;;;;;129.32;65.93;;;;;;;11.43;nan;96429.53;5090213;28;20198;-58
2023/01/02 09:04:07;;;;;;;139.30;64.60;;;;;;;11.52;nan;96426.03;5089380;28;20198;-59
2023/01/02 09:06:35;;;;;;;130.68;65.40;;;;;;;11.45;nan;96425.28;5089483;28;20225;-59
2023/01/02 09:09:04;;;;;;;120.80;60.17;;;;;;;11.43;nan;96427.00;5093889;28;20243;-59
2023/01/02 09:11:34;;;;;;;122.95;61.65;;;;;;;11.30;nan;96405.16;5093027;28;20216;-60
2023/01/02 09:14:02;;;;;;;127.03;60.97;;;;;;;11.59;nan;96413.19;5093669;28;20194;-60
2023/01/02 09:16:29;;;;;;;113.70;57.17;;;;;;;11.72;nan;96405.34;5093667;28;20198;-59
2023/01/02 09:18:57;;;;;;;118.13;56.33;;;;;;;11.94;nan;96409.22;5093739;28;20592;-58
2023/01/02 09:21:24;;;;;;;124.88;60.10;;;;;;;12.08;nan;96404.75;5093554;28;20248;-59
2023/01/02 09:23:51;;;;;;;116.72;60.22;;;;;;;12.11;nan;96398.75;5093429;28;20230;-60
2023/01/02 09:26:19;;;;;;;131.02;60.50;;;;;;;12.15;nan;96401.19;5093471;28;20220;-59
2023/01/02 09:28:46;;;;;;;122.07;61.85;;;;;;;12.27;nan;96395.88;5093228;28;20251;-58
2023/01/02 09:31:15;;;;;;;131.40;61.28;;;;;;;12.12;nan;96388.53;5092387;28;20202;-58
2023/01/02 09:33:43;;;;;;;120.50;60.75;;;;;;;12.09;nan;96386.03;5092677;28;20664;-59
2023/01/02 09:36:12;;;;;;;111.72;57.83;;;;;;;12.21;nan;96382.41;5092811;28;20326;-59
2023/01/02 09:38:39;;;;;;;116.35;58.20;;;;;;;12.34;nan;96377.94;5092526;28;20228;-60
2023/01/02 09:41:09;;;;;;;114.22;56.17;;;;;;;12.38;nan;96376.97;5092094;28;20273;-60
2023/01/02 09:43:41;;;;;;;102.90;56.45;;;;;;;12.20;nan;96371.38;5092841;28;20708;-60
2023/01/02 09:46:19;;;;;;;119.95;60.42;;;;;;;12.07;nan;96369.94;5093136;28;20222;-66
2023/01/02 09:48:45;;;;;;;125.45;60.45;;;;;;;12.14;nan;96366.38;5093208;28;20204;-69
2023/01/02 09:51:12;;;;;;;122.75;60.42;;;;;;;12.06;nan;96367.41;5092892;28;20205;-66
2023/01/02 09:53:40;;;;;;;116.55;60.03;;;;;;;12.06;nan;96360.63;5092213;28;20201;-66
2023/01/02 09:56:13;;;;;;;123.20;60.53;;;;;;;12.06;nan;96355.50;5092503;28;20198;-67
2023/01/02 09:58:50;;;;;;;114.45;57.70;;;;;;;12.19;nan;96349.31;5092261;28;20573;-59
2023/01/02 10:01:26;;;;;;;117.45;56.90;;;;;;;12.13;nan;96344.31;5092507;28;20197;-59
2023/01/02 10:04:04;;;;;;;104.95;56.97;;;;;;;12.16;nan;96340.88;5092617;28;20250;-59
2023/01/02 10:06:39;;;;;;;100.38;57.20;;;;;;;11.96;nan;96338.72;5092095;28;20221;-60
2023/01/02 10:09:12;;;;;;;104.72;57.03;;;;;;;11.96;nan;96323.41;5091732;28;20221;-59
2023/01/02 10:11:48;;;;;;;112.35;58.72;;;;;;;12.15;nan;96324.75;5091824;28;20200;-59
2023/01/02 10:14:26;;;;;;;105.82;56.95;;;;;;;12.37;nan;96332.00;5091264;28;20864;-58
2023/01/02 10:16:56;;;;;;;110.63;60.13;;;;;;;12.35;nan;96329.47;5091707;28;20663;-59
2023/01/02 10:19:33;;;;;;;109.88;59.40;;;;;;;12.37;nan;96316.69;5091517;28;20201;-60
2023/01/02 10:22:01;;;;;;;102.97;58.40;;;;;;;12.56;nan;96310.31;5091950;28;20324;-60
2023/01/02 10:24:39;;;;;;;105.15;60.15;;;;;;;12.60;nan;96319.59;5091922;28;20197;-59
2023/01/02 10:27:12;;;;;;;100.68;59.38;;;;;;;12.64;nan;96312.69;5092063;28;20643;-60
2023/01/02 10:29:45;;;;;;;109.70;60.42;;;;;;;12.59;nan;96302.63;5092067;28;20250;-60
2023/01/02 10:32:16;;;;;;;108.30;59.15;;;;;;;12.64;nan;96310.97;5090563;28;20205;-59
2023/01/02 10:34:50;;;;;;;101.13;57.03;;;;;;;12.67;nan;96305.81;5090428;28;20245;-59
2023/01/02 10:37:18;;;;;;;114.93;62.70;;;;;;;12.74;nan;96307.38;5090452;28;20662;-59
2023/01/02 10:39:49;;;;;;;118.32;66.53;;;;;;;12.34;nan;96294.66;5090600;28;20581;-59
2023/01/02 10:42:16;;;;;;;113.07;63.50;;;;;;;12.25;nan;96305.84;5090804;28;20247;-58
2023/01/02 10:44:46;;;;;;;109.03;63.85;;;;;;;12.18;nan;96296.66;5090479;28;20193;-60
2023/01/02 10:47:19;;;;;;;121.35;64.00;;;;;;;12.18;nan;96275.41;5091149;28;20232;-60
2023/01/02 10:49:48;;;;;;;124.68;65.13;;;;;;;12.25;nan;96287.19;5091647;28;20229;-59
2023/01/02 10:52:21;;;;;;;107.50;62.08;;;;;;;12.36;nan;96282.72;5091935;28;20190;-61
2023/01/02 10:54:51;;;;;;;114.57;65.72;;;;;;;12.36;nan;96281.88;5091458;28;20556;-61
2023/01/02 10:57:24;;;;;;;111.95;61.95;;;;;;;12.02;nan;96274.06;5091366;28;20206;-58
2023/01/02 10:59:59;;;;;;;119.50;66.40;;;;;;;11.96;nan;96277.56;5091280;28;20193;-59
2023/01/02 11:02:30;;;;;;;113.43;63.88;;;;;;;11.96;nan;96269.91;5091107;28;20197;-59
2023/01/02 11:05:01;;;;;;;117.38;62.30;;;;;;;12.09;nan;96268.81;5091481;28;20205;-61
2023/01/02 11:07:33;;;;;;;114.13;66.55;;;;;;;12.14;nan;96258.50;5091486;28;20253;-60
2023/01/02 11:10:00;;;;;;;114.07;64.55;;;;;;;12.08;nan;96251.00;5091556;28;20194;-60
2023/01/02 11:12:27;;;;;;;114.93;60.38;;;;;;;12.14;nan;96249.16;5091192;28;20671;-60
2023/01/02 11:15:10;;;;;;;106.00;60.45;;;;;;;12.41;nan;96241.78;5091059;28;20202;-61
2023/01/02 11:17:42;;;;;;;102.00;57.88;;;;;;;12.48;nan;96246.72;5091462;28;20189;-60
2023/01/02 11:20:23;;;;;;;100.88;55.90;;;;;;;12.03;nan;96237.53;5091042;28;20308;-60
2023/01/02 11:22:50;;;;;;;113.75;55.33;;;;;;;11.98;nan;96234.22;5090669;28;20225;-61
2023/01/02 11:25:22;;;;;;;98.05;55.00;;;;;;;11.87;nan;96239.56;5090930;28;20251;-60
2023/01/02 11:27:50;;;;;;;96.18;56.15;;;;;;;11.84;nan;96235.34;5090771;28;20229;-60
2023/01/02 11:30:32;;;;;;;98.22;54.88;;;;;;;11.88;nan;96233.56;5090691;28;20733;-59
2023/01/02 11:33:07;;;;;;;103.30;55.15;;;;;;;11.89;nan;96227.59;5090883;28;20276;-60
2023/01/02 11:35:39;;;;;;;112.35;57.25;;;;;;;11.78;nan;96224.44;5091081;28;20193;-60
2023/01/02 11:38:14;;;;;;;102.55;53.35;;;;;;;11.85;nan;96214.13;5090728;28;20775;-60
2023/01/02 11:40:52;;;;;;;96.18;54.40;;;;;;;12.00;nan;96210.41;5090682;28;20548;-60
2023/01/02 11:46:27;;;;;;;92.05;51.30;;;;;;;12.29;nan;96214.03;5090428;28;20258;-58
2023/01/02 11:48:59;;;;;;;90.80;51.28;;;;;;;12.34;nan;96207.13;5090529;28;20284;-59
2023/01/02 11:51:29;;;;;;;79.78;49.17;;;;;;;12.47;nan;96198.31;5090473;28;20206;-58